Time;durP1;ratioP1;P1;durP2;ratioP2;P2;SDS_P1;SDS_P2;PMS_P1;PMS_P2;Temp;Humidity;BMP_temperature;BMP_pressure;BME280_temperature;BME280_humidity;BME280_pressure;Samples;Min_cycle;Max_cycle;Signal;HPM_P1;HPM_P2
2022/10/06 00:00:01;;;;;;;;;;;;;;;14.88;58.63;101519.81;5411139;32;34717;-76
2022/10/06 00:03:05;;;;;;;;;;;;;;;14.28;61.20;101518.50;5425660;32;34707;-76
2022/10/06 00:06:07;;;;;;;;;;;;;;;14.87;59.93;101522.50;5409583;32;35934;-72
2022/10/06 00:09:08;;;;;;;;;;;;;;;15.55;57.25;101518.88;5411041;32;34635;-76
2022/10/06 00:12:10;;;;;;;;;;;;;;;14.95;58.98;101517.78;5395183;32;43134;-73
2022/10/06 00:15:14;;;;;;;;;;;;;;;14.27;61.63;101521.22;5425194;32;34483;-73
2022/10/06 00:18:16;;;;;;;;;;;;;;;15.23;58.62;101512.25;5410714;32;34252;-76
2022/10/06 00:21:18;;;;;;;;;;;;;;;14.20;62.04;101522.38;5411276;32;35377;-72
2022/10/06 00:24:20;;;;;;;;;;;;;;;14.88;60.10;101518.97;5423743;32;35506;-72
2022/10/06 00:27:22;;;;;;;;;;;;;;;14.84;60.29;101514.69;5393512;32;35324;-75
2022/10/06 00:30:24;;;;;;;;;;;;;;;14.73;62.03;101522.19;5415716;32;34462;-72
2022/10/06 00:33:26;;;;;;;;;;;;;;;14.46;63.11;101526.69;5377543;32;35015;-76
2022/10/06 00:36:28;;;;;;;;;;;;;;;14.39;63.92;101526.06;5403158;32;34598;-73
2022/10/06 00:39:30;;;;;;;;;;;;;;;14.27;64.02;101518.56;5393831;32;35740;-73
2022/10/06 00:42:32;;;;;;;;;;;;;;;14.49;63.17;101523.97;5384046;32;34878;-73
2022/10/06 00:45:37;;;;;;;;;;;;;;;15.16;60.75;101519.56;5360431;32;35120;-74
2022/10/06 00:48:39;;;;;;;;;;;;;;;15.24;60.43;101507.81;5384043;32;35544;-74
2022/10/06 00:51:43;;;;;;;;;;;;;;;14.54;62.88;101514.06;5391599;32;44693;-75
2022/10/06 00:54:45;;;;;;;;;;;;;;;14.02;65.75;101518.59;5376951;32;34798;-72
2022/10/06 00:57:47;;;;;;;;;;;;;;;13.83;67.31;101516.59;5402808;32;35278;-77
2022/10/06 01:00:52;;;;;;;;;;;;;;;14.00;67.64;101518.66;5377050;32;35610;-76
2022/10/06 01:03:56;;;;;;;;;;;;;;;14.59;64.08;101520.06;5371554;32;35036;-72
2022/10/06 01:06:58;;;;;;;;;;;;;;;13.83;67.39;101515.72;5390863;32;34304;-77
2022/10/06 01:10:00;;;;;;;;;;;;;;;14.00;67.89;101512.50;5385794;32;35051;-73
2022/10/06 01:13:02;;;;;;;;;;;;;;;13.59;69.77;101511.28;5401591;32;35399;-73
2022/10/06 01:16:09;;;;;;;;;;;;;;;13.24;71.44;101516.81;5389487;32;34965;-77
2022/10/06 01:19:42;;;;;;;;;;;;;;;13.38;71.23;101526.91;5397397;32;44293;-78
2022/10/06 01:22:44;;;;;;;;;;;;;;;13.27;71.22;101521.16;5381330;32;44640;-78
2022/10/06 01:25:46;;;;;;;;;;;;;;;13.97;66.85;101515.25;5376992;32;35171;-72
2022/10/06 01:28:48;;;;;;;;;;;;;;;13.80;66.84;101516.72;5401985;32;32511;-72
2022/10/06 01:31:50;;;;;;;;;;;;;;;13.86;66.67;101518.28;5390499;32;34922;-76
2022/10/06 01:34:52;;;;;;;;;;;;;;;14.13;65.53;101520.88;5377593;32;35251;-77
2022/10/06 01:37:57;;;;;;;;;;;;;;;14.41;64.22;101524.22;5375191;32;34553;-72
2022/10/06 01:40:59;;;;;;;;;;;;;;;14.06;64.94;101518.44;5390521;32;35419;-72
2022/10/06 01:44:01;;;;;;;;;;;;;;;13.90;65.88;101526.94;5385184;32;35488;-75
2022/10/06 01:47:03;;;;;;;;;;;;;;;14.47;63.82;101529.31;5372617;32;34759;-72
2022/10/06 01:50:06;;;;;;;;;;;;;;;14.69;62.56;101536.47;5392045;32;34572;-74
2022/10/06 01:53:09;;;;;;;;;;;;;;;14.32;64.50;101541.28;5390584;32;36028;-73
2022/10/06 01:56:11;;;;;;;;;;;;;;;13.99;65.25;101542.50;5394420;32;45111;-73
2022/10/06 01:59:12;;;;;;;;;;;;;;;14.42;64.17;101541.81;5383941;32;34293;-73
2022/10/06 02:02:14;;;;;;;;;;;;;;;14.14;64.95;101538.44;5389934;32;35388;-77
2022/10/06 02:05:16;;;;;;;;;;;;;;;13.97;66.14;101531.09;5421602;32;35380;-74
2022/10/06 02:08:18;;;;;;;;;;;;;;;14.46;64.26;101530.25;5395556;32;36333;-72
2022/10/06 02:11:20;;;;;;;;;;;;;;;14.28;64.93;101544.09;5423403;32;35181;-77
2022/10/06 02:14:22;;;;;;;;;;;;;;;13.58;68.53;101539.47;5408711;32;35668;-78
2022/10/06 02:17:24;;;;;;;;;;;;;;;13.57;69.01;101545.66;5404298;32;35337;-76
2022/10/06 02:20:26;;;;;;;;;;;;;;;13.23;70.66;101541.50;5399136;32;34890;-76
2022/10/06 02:23:28;;;;;;;;;;;;;;;13.77;68.38;101545.84;5407669;32;35055;-77
2022/10/06 02:26:31;;;;;;;;;;;;;;;13.78;67.99;101549.38;5407018;32;35096;-77
2022/10/06 02:29:33;;;;;;;;;;;;;;;14.13;66.51;101545.53;5392013;32;34847;-77
2022/10/06 02:32:35;;;;;;;;;;;;;;;13.92;66.80;101548.91;5408028;32;35604;-73
2022/10/06 02:35:37;;;;;;;;;;;;;;;13.61;68.42;101552.59;5394704;32;34753;-73
2022/10/06 02:38:40;;;;;;;;;;;;;;;13.65;68.37;101553.34;5418367;32;35210;-73
2022/10/06 02:41:42;;;;;;;;;;;;;;;13.97;66.53;101546.97;5398815;32;43583;-76
2022/10/06 02:44:44;;;;;;;;;;;;;;;13.58;68.14;101552.69;5397967;32;34405;-72
2022/10/06 02:47:46;;;;;;;;;;;;;;;13.11;70.73;101548.91;5398810;32;34945;-76
2022/10/06 02:50:54;;;;;;;;;;;;;;;12.35;75.33;101555.50;5394531;32;34726;-72
2022/10/06 02:53:55;;;;;;;;;;;;;;;12.39;76.31;101549.25;5426070;32;34674;-74
2022/10/06 02:56:57;;;;;;;;;;;;;;;13.16;71.89;101549.63;5395488;32;34590;-72
2022/10/06 02:59:59;;;;;;;;;;;;;;;13.11;71.23;101539.19;5404041;32;35248;-72
2022/10/06 03:03:01;;;;;;;;;;;;;;;12.82;72.24;101561.22;5404771;32;35760;-74
2022/10/06 03:06:04;;;;;;;;;;;;;;;13.27;70.56;101543.13;5411335;32;34906;-73
2022/10/06 03:09:07;;;;;;;;;;;;;;;13.15;71.23;101548.75;5423949;32;34253;-76
2022/10/06 03:12:08;;;;;;;;;;;;;;;12.82;72.71;101550.66;5396269;32;34767;-74
2022/10/06 03:15:10;;;;;;;;;;;;;;;12.79;72.48;101553.38;5411001;32;46712;-73
2022/10/06 03:18:12;;;;;;;;;;;;;;;12.29;74.78;101539.00;5410740;32;35009;-76
2022/10/06 03:21:15;;;;;;;;;;;;;;;13.04;71.68;101548.22;5416310;32;35936;-73
2022/10/06 03:24:16;;;;;;;;;;;;;;;12.70;72.92;101554.53;5406881;32;35349;-77
2022/10/06 03:27:18;;;;;;;;;;;;;;;12.96;72.05;101552.88;5394284;32;35310;-77
2022/10/06 03:30:20;;;;;;;;;;;;;;;12.87;71.99;101558.41;5422874;32;37089;-76
2022/10/06 03:33:22;;;;;;;;;;;;;;;12.31;74.02;101548.63;5411700;32;34861;-72
2022/10/06 03:36:25;;;;;;;;;;;;;;;12.35;74.56;101555.50;5423322;32;35390;-73
2022/10/06 03:39:27;;;;;;;;;;;;;;;12.92;72.21;101551.22;5397085;32;35547;-72
2022/10/06 03:42:31;;;;;;;;;;;;;;;13.52;68.99;101551.13;5415550;32;34736;-73
2022/10/06 03:45:33;;;;;;;;;;;;;;;12.51;72.76;101557.75;5402812;32;34285;-72
2022/10/06 03:48:35;;;;;;;;;;;;;;;12.86;71.70;101557.56;5406682;32;34760;-74
2022/10/06 03:51:38;;;;;;;;;;;;;;;12.96;71.10;101544.97;5410347;32;34420;-73
2022/10/06 03:54:40;;;;;;;;;;;;;;;12.48;72.61;101562.16;5396947;32;44558;-75
2022/10/06 03:57:42;;;;;;;;;;;;;;;12.59;72.26;101551.31;5424311;32;35431;-77
2022/10/06 04:00:45;;;;;;;;;;;;;;;12.42;73.89;101558.84;5392578;32;34430;-76
2022/10/06 04:03:49;;;;;;;;;;;;;;;12.55;73.31;101554.09;5412403;32;36085;-76
2022/10/06 04:06:51;;;;;;;;;;;;;;;12.86;72.63;101561.97;5423838;32;36158;-73
2022/10/06 04:09:53;;;;;;;;;;;;;;;12.30;73.70;101572.34;5408875;32;34906;-72
2022/10/06 04:12:55;;;;;;;;;;;;;;;12.51;73.41;101569.16;5410044;32;35530;-72
2022/10/06 04:15:57;;;;;;;;;;;;;;;12.29;73.54;101575.91;5394772;32;34741;-75
2022/10/06 04:19:03;;;;;;;;;;;;;;;13.21;69.57;101571.50;5425813;32;36060;-72
2022/10/06 04:22:05;;;;;;;;;;;;;;;12.98;69.77;101575.66;5409990;32;34705;-77
2022/10/06 04:25:07;;;;;;;;;;;;;;;12.95;69.78;101578.41;5411540;32;34170;-72
2022/10/06 04:28:09;;;;;;;;;;;;;;;13.23;68.91;101569.66;5421661;32;34791;-73
2022/10/06 04:31:15;;;;;;;;;;;;;;;12.86;70.15;101580.44;5394183;32;44786;-75
2022/10/06 04:34:17;;;;;;;;;;;;;;;12.08;73.72;101580.84;5409930;32;34524;-76
2022/10/06 04:37:19;;;;;;;;;;;;;;;12.83;71.49;101577.91;5409265;32;36664;-73
2022/10/06 04:40:21;;;;;;;;;;;;;;;13.63;66.78;101574.53;5424312;32;35695;-77
2022/10/06 04:43:23;;;;;;;;;;;;;;;13.65;66.07;101577.09;5408984;32;35212;-72
2022/10/06 04:46:25;;;;;;;;;;;;;;;13.13;68.39;101570.81;5373961;32;35281;-77
2022/10/06 04:49:45;;;;;;;;;;;;;;;13.34;67.61;101564.91;5410912;32;44918;-76
2022/10/06 04:52:47;;;;;;;;;;;;;;;13.35;67.55;101561.38;5409625;32;35841;-72
2022/10/06 04:56:09;;;;;;;;;;;;;;;13.23;67.96;101562.63;5423946;32;34547;-74
2022/10/06 04:59:11;;;;;;;;;;;;;;;12.92;67.84;101573.22;5392885;32;44583;-73
2022/10/06 05:02:12;;;;;;;;;;;;;;;12.47;71.29;101570.13;5410270;32;34663;-76
2022/10/06 05:05:14;;;;;;;;;;;;;;;12.68;70.27;101577.41;5424629;32;34309;-73
2022/10/06 05:08:16;;;;;;;;;;;;;;;12.92;70.01;101585.53;5409251;32;36954;-76
2022/10/06 05:11:19;;;;;;;;;;;;;;;12.61;71.23;101578.50;5423550;32;34208;-77
2022/10/06 05:14:26;;;;;;;;;;;;;;;12.42;71.81;101580.78;5391343;32;35101;-77
2022/10/06 05:17:28;;;;;;;;;;;;;;;12.43;72.61;101579.06;5419920;32;34982;-77
2022/10/06 05:20:30;;;;;;;;;;;;;;;12.33;73.38;101583.69;5396424;32;34855;-73
2022/10/06 05:23:33;;;;;;;;;;;;;;;12.29;73.01;101579.41;5410273;32;34896;-73
2022/10/06 05:26:35;;;;;;;;;;;;;;;12.39;72.00;101583.53;5402223;32;36385;-73
2022/10/06 05:29:38;;;;;;;;;;;;;;;12.72;70.81;101579.06;5404483;32;35377;-72
2022/10/06 05:32:40;;;;;;;;;;;;;;;12.64;70.34;101585.50;5423720;32;37257;-72
2022/10/06 05:35:49;;;;;;;;;;;;;;;13.09;69.92;101582.41;5392155;32;35803;-71
2022/10/06 05:38:51;;;;;;;;;;;;;;;14.17;67.25;101585.91;5404970;32;34394;-71
2022/10/06 05:41:53;;;;;;;;;;;;;;;15.27;60.37;101579.22;5412185;32;35960;-77
2022/10/06 05:44:57;;;;;;;;;;;;;;;15.53;60.48;101581.66;5383044;32;34227;-91
2022/10/06 05:47:59;;;;;;;;;;;;;;;14.48;63.04;101581.28;5415395;32;34457;-80
2022/10/06 05:51:02;;;;;;;;;;;;;;;16.07;57.46;101582.97;5403182;32;36801;-77
2022/10/06 05:54:04;;;;;;;;;;;;;;;17.77;52.24;101573.28;5424064;32;34469;-83
2022/10/06 05:57:07;;;;;;;;;;;;;;;16.61;54.45;101586.75;5396501;32;35199;-73
2022/10/06 06:00:09;;;;;;;;;;;;;;;16.14;56.31;101594.16;5401726;32;34136;-74
2022/10/06 06:03:11;;;;;;;;;;;;;;;17.27;53.37;101587.25;5425596;32;47590;-80
2022/10/06 06:06:17;;;;;;;;;;;;;;;15.27;59.89;101595.09;5410995;32;34101;-89
2022/10/06 06:09:20;;;;;;;;;;;;;;;16.62;55.13;101593.81;5414838;32;34514;-75
2022/10/06 06:12:22;;;;;;;;;;;;;;;15.74;58.30;101601.16;5382912;32;34684;-74
2022/10/06 06:18:44;;;;;;;;;;;;;;;14.55;62.30;101611.91;5406750;32;44582;-69
2022/10/06 06:21:46;;;;;;;;;;;;;;;13.70;65.82;101614.81;5404670;32;35438;-70
2022/10/06 06:24:48;;;;;;;;;;;;;;;13.62;66.77;101619.50;5406819;32;35900;-78
2022/10/06 06:27:53;;;;;;;;;;;;;;;14.05;64.52;101611.03;5410565;32;35117;-72
2022/10/06 06:31:01;;;;;;;;;;;;;;;13.99;66.17;101625.31;5405560;32;35321;-71
2022/10/06 06:34:05;;;;;;;;;;;;;;;13.63;67.11;101626.50;5413121;32;34945;-70
2022/10/06 06:37:09;;;;;;;;;;;;;;;13.95;66.48;101631.59;5419408;32;35355;-77
2022/10/06 06:40:16;;;;;;;;;;;;;;;14.97;61.92;101645.66;5405990;32;44802;-73
2022/10/06 06:43:18;;;;;;;;;;;;;;;14.51;63.46;101647.34;5411090;32;34098;-76
2022/10/06 06:46:23;;;;;;;;;;;;;;;14.16;64.72;101634.44;5407018;32;35145;-74
2022/10/06 06:49:26;;;;;;;;;;;;;;;14.29;65.21;101639.22;5413109;32;34910;-68
2022/10/06 06:52:31;;;;;;;;;;;;;;;15.38;60.17;101648.50;5421640;32;36515;-71
2022/10/06 06:55:33;;;;;;;;;;;;;;;15.08;60.84;101643.47;5411471;32;34235;-71
2022/10/06 06:58:35;;;;;;;;;;;;;;;15.36;60.15;101640.63;5416639;32;34487;-73
2022/10/06 07:01:45;;;;;;;;;;;;;;;15.41;59.54;101648.41;5411699;32;35927;-70
2022/10/06 07:04:48;;;;;;;;;;;;;;;13.75;65.77;101653.38;5399125;32;45131;-73
2022/10/06 07:07:50;;;;;;;;;;;;;;;14.90;63.40;101645.03;5410719;32;34564;-75
2022/10/06 07:10:54;;;;;;;;;;;;;;;16.44;57.85;101650.34;5409467;32;33273;-72
2022/10/06 07:13:57;;;;;;;;;;;;;;;17.16;54.88;101650.66;5417601;32;34070;-71
2022/10/06 07:27:01;;;;;;;;;;;;;;;19.61;48.65;101651.38;5405837;32;36064;-71
2022/10/06 07:30:03;;;;;;;;;;;;;;;19.59;47.85;101661.28;5418980;32;35470;-78
2022/10/06 07:33:05;;;;;;;;;;;;;;;20.03;44.97;101658.72;5410487;32;35521;-72
2022/10/06 07:36:10;;;;;;;;;;;;;;;21.07;43.38;101665.78;5405993;32;35346;-75
2022/10/06 07:39:12;;;;;;;;;;;;;;;19.90;45.63;101661.25;5421435;32;44413;-82
2022/10/06 07:42:15;;;;;;;;;;;;;;;21.07;42.90;101655.94;5408521;32;34371;-79
2022/10/06 07:45:37;;;;;;;;;;;;;;;19.41;46.06;101665.81;5405137;32;35865;-68
2022/10/06 07:48:40;;;;;;;;;;;;;;;18.57;48.79;101665.84;5384265;32;44826;-79
2022/10/06 07:51:42;;;;;;;;;;;;;;;18.16;49.83;101669.75;5409479;32;35749;-81
2022/10/06 07:54:44;;;;;;;;;;;;;;;17.37;53.02;101677.16;5421962;32;34069;-72
2022/10/06 07:57:49;;;;;;;;;;;;;;;17.09;53.62;101675.78;5412496;32;35455;-81
2022/10/06 08:00:51;;;;;;;;;;;;;;;17.95;51.16;101666.38;5424553;32;35924;-73
2022/10/06 08:03:53;;;;;;;;;;;;;;;17.53;52.46;101686.12;5410302;32;35276;-71
2022/10/06 08:06:57;;;;;;;;;;;;;;;16.57;54.90;101685.19;5421777;32;33087;-71
2022/10/06 08:09:59;;;;;;;;;;;;;;;17.01;54.27;101681.44;5395415;32;34415;-71
2022/10/06 08:13:04;;;;;;;;;;;;;;;17.32;53.17;101678.25;5396835;32;34339;-80
2022/10/06 08:16:07;;;;;;;;;;;;;;;16.24;57.28;101691.84;5422236;32;34305;-77
2022/10/06 08:19:10;;;;;;;;;;;;;;;16.38;57.12;101693.94;5413734;32;35111;-80
2022/10/06 08:22:14;;;;;;;;;;;;;;;15.67;58.47;101689.78;5394794;32;42199;-70
2022/10/06 08:25:16;;;;;;;;;;;;;;;16.08;57.85;101688.09;5410448;32;34323;-69
2022/10/06 08:28:19;;;;;;;;;;;;;;;15.82;58.60;101689.16;5422984;32;34280;-70
2022/10/06 08:31:21;;;;;;;;;;;;;;;15.78;58.63;101679.62;5415180;32;36302;-69
2022/10/06 08:34:23;;;;;;;;;;;;;;;16.40;57.46;101681.44;5415030;32;35762;-70
2022/10/06 08:37:26;;;;;;;;;;;;;;;16.29;57.20;101690.78;5424167;32;34335;-73
2022/10/06 08:40:28;;;;;;;;;;;;;;;16.27;57.41;101690.00;5397658;32;34679;-73
2022/10/06 08:43:32;;;;;;;;;;;;;;;17.77;52.74;101686.75;5425507;32;34327;-70
2022/10/06 08:46:45;;;;;;;;;;;;;;;16.49;56.33;101688.16;5389502;32;34338;-74
2022/10/06 08:49:48;;;;;;;;;;;;;;;16.47;56.79;101684.69;5403815;32;44476;-73
2022/10/06 08:53:00;;;;;;;;;;;;;;;17.80;52.52;101690.16;5415646;32;34824;-79
2022/10/06 08:56:07;;;;;;;;;;;;;;;18.39;51.70;101678.31;5407838;32;34259;-79
2022/10/06 08:59:09;;;;;;;;;;;;;;;18.28;51.05;101683.31;5413472;32;36129;-71
2022/10/06 09:02:15;;;;;;;;;;;;;;;17.82;52.98;101682.94;5397498;32;46873;-70
2022/10/06 09:05:24;;;;;;;;;;;;;;;19.15;48.48;101677.91;5405336;32;35383;-68
2022/10/06 09:08:46;;;;;;;;;;;;;;;18.77;49.54;101682.62;5414512;32;35035;-70
2022/10/06 09:12:10;;;;;;;;;;;;;;;17.36;53.36;101691.37;5409357;32;45101;-74
2022/10/06 09:15:18;;;;;;;;;;;;;;;17.65;52.75;101684.69;5381716;32;952507;-69
2022/10/06 09:18:22;;;;;;;;;;;;;;;18.15;51.81;101674.22;5411377;32;33510;-72
2022/10/06 09:21:33;;;;;;;;;;;;;;;17.99;51.44;101683.94;5405757;32;35409;-75
2022/10/06 09:24:44;;;;;;;;;;;;;;;19.33;48.42;101676.03;5393570;32;34256;-74
2022/10/06 09:27:49;;;;;;;;;;;;;;;19.74;46.88;101681.75;5393679;32;44783;-73
2022/10/06 09:30:54;;;;;;;;;;;;;;;19.60;46.97;101682.53;5406171;32;34080;-75
2022/10/06 09:34:22;;;;;;;;;;;;;;;19.44;47.19;101677.13;5412432;32;34296;-80
2022/10/06 09:37:25;;;;;;;;;;;;;;;19.59;46.50;101685.28;5374455;32;35646;-76
2022/10/06 09:40:30;;;;;;;;;;;;;;;20.15;45.67;101676.66;5404865;32;36345;-75
2022/10/06 09:43:32;;;;;;;;;;;;;;;23.21;39.14;101670.16;5410745;32;34346;-73
2022/10/06 09:46:38;;;;;;;;;;;;;;;23.66;37.95;101673.16;5397201;32;35382;-72
2022/10/06 09:49:41;;;;;;;;;;;;;;;23.51;37.76;101673.28;5396138;32;44388;-73
2022/10/06 09:53:05;;;;;;;;;;;;;;;22.73;39.21;101671.75;5418958;32;34798;-78
2022/10/06 09:56:20;;;;;;;;;;;;;;;24.52;35.70;101662.16;5406424;32;35586;-77
2022/10/06 09:59:28;;;;;;;;;;;;;;;24.49;36.02;101674.00;5402854;32;34764;-78
2022/10/06 10:02:40;;;;;;;;;;;;;;;25.16;34.73;101677.75;5407063;32;34289;-80
2022/10/06 10:05:50;;;;;;;;;;;;;;;24.38;36.43;101671.28;5409917;32;45401;-80
2022/10/06 10:09:14;;;;;;;;;;;;;;;23.60;37.74;101678.94;5411407;32;35173;-81
2022/10/06 10:12:26;;;;;;;;;;;;;;;25.37;34.72;101671.50;5417073;32;34412;-85
2022/10/06 10:15:30;;;;;;;;;;;;;;;25.17;33.95;101669.56;5399450;32;34818;-88
2022/10/06 10:18:34;;;;;;;;;;;;;;;25.24;34.57;101670.78;5407799;32;34966;-79
2022/10/06 10:21:37;;;;;;;;;;;;;;;22.89;38.85;101672.44;5391193;32;33062;-78
2022/10/06 10:24:55;;;;;;;;;;;;;;;23.39;37.84;101667.97;5407995;32;44544;-73
2022/10/06 10:28:24;;;;;;;;;;;;;;;22.48;39.44;101672.59;5411995;32;35288;-79
2022/10/06 10:31:32;;;;;;;;;;;;;;;22.98;38.56;101659.22;5377743;32;36490;-76
2022/10/06 10:34:49;;;;;;;;;;;;;;;23.98;36.50;101663.56;5429586;32;34710;-72
2022/10/06 10:38:00;;;;;;;;;;;;;;;25.67;33.61;101651.13;5397390;32;34225;-76
2022/10/06 10:41:15;;;;;;;;;;;;;;;23.45;37.53;101654.09;5417189;32;34539;-75
2022/10/06 10:44:28;;;;;;;;;;;;;;;23.97;36.19;101652.94;5404631;32;45624;-73
2022/10/06 10:47:33;;;;;;;;;;;;;;;23.40;37.29;101650.87;5378048;32;33575;-73
2022/10/06 10:50:41;;;;;;;;;;;;;;;23.11;37.82;101648.47;5406760;32;34324;-73
2022/10/06 10:53:43;;;;;;;;;;;;;;;22.82;38.85;101655.03;5404667;32;44455;-74
2022/10/06 10:56:48;;;;;;;;;;;;;;;22.36;39.47;101644.84;5421851;32;34025;-75
2022/10/06 10:59:59;;;;;;;;;;;;;;;22.57;39.62;101648.72;5400916;32;35976;-72
2022/10/06 11:03:03;;;;;;;;;;;;;;;23.67;37.55;101651.56;5405297;32;34377;-74
2022/10/06 11:06:14;;;;;;;;;;;;;;;23.39;38.93;101658.09;5425354;32;36270;-82
2022/10/06 11:09:17;;;;;;;;;;;;;;;23.90;37.73;101646.31;5408911;32;42514;-71
2022/10/06 11:12:23;;;;;;;;;;;;;;;23.78;38.29;101656.16;5400245;32;35085;-79
2022/10/06 11:15:34;;;;;;;;;;;;;;;23.20;39.75;101657.72;5393789;32;35263;-82
2022/10/06 11:18:36;;;;;;;;;;;;;;;23.27;39.58;101644.72;5398440;32;35369;-78
2022/10/06 11:21:40;;;;;;;;;;;;;;;23.34;39.29;101652.19;5423826;32;36077;-73
2022/10/06 11:24:51;;;;;;;;;;;;;;;22.24;42.17;101646.53;5387583;32;44738;-71
2022/10/06 11:28:03;;;;;;;;;;;;;;;21.65;43.55;101651.38;5421087;32;34091;-69
2022/10/06 11:31:14;;;;;;;;;;;;;;;21.51;44.26;101651.38;5403380;32;35461;-70
2022/10/06 11:34:23;;;;;;;;;;;;;;;23.13;41.05;101643.87;5405256;32;34385;-73
2022/10/06 11:37:31;;;;;;;;;;;;;;;22.76;40.67;101639.38;5416365;32;34709;-75
2022/10/06 11:40:52;;;;;;;;;;;;;;;22.55;41.21;101634.56;5398292;32;34290;-87
2022/10/06 11:44:14;;;;;;;;;;;;;;;22.42;41.57;101625.69;5420471;32;35104;-72
2022/10/06 11:47:19;;;;;;;;;;;;;;;22.64;41.00;101628.56;5401555;32;44907;-68
2022/10/06 11:50:41;;;;;;;;;;;;;;;23.47;39.62;101628.00;5408355;32;35893;-69
2022/10/06 11:53:43;;;;;;;;;;;;;;;22.54;41.58;101627.50;5400657;32;44953;-71
2022/10/06 11:56:45;;;;;;;;;;;;;;;23.90;38.49;101622.16;5408239;32;35598;-70
2022/10/06 11:59:51;;;;;;;;;;;;;;;22.89;40.21;101627.72;5416347;32;35631;-69
2022/10/06 12:02:55;;;;;;;;;;;;;;;23.35;39.44;101626.22;5391928;32;35222;-70
2022/10/06 12:05:57;;;;;;;;;;;;;;;23.52;39.21;101628.53;5398325;32;34519;-69
2022/10/06 12:09:00;;;;;;;;;;;;;;;22.70;41.10;101625.44;5402922;32;37517;-74
2022/10/06 12:12:16;;;;;;;;;;;;;;;22.81;41.29;101627.38;5408441;32;35607;-71
2022/10/06 12:15:47;;;;;;;;;;;;;;;23.74;39.51;101611.69;5422002;32;45061;-70
2022/10/06 12:19:27;;;;;;;;;;;;;;;22.54;41.97;101618.59;5366228;32;34272;-79
2022/10/06 12:22:30;;;;;;;;;;;;;;;23.08;41.26;101616.53;5395712;32;34466;-70
2022/10/06 12:25:51;;;;;;;;;;;;;;;23.39;40.54;101611.62;5419080;32;34146;-76
2022/10/06 12:29:17;;;;;;;;;;;;;;;22.99;41.31;101609.13;5407185;32;35027;-73
2022/10/06 12:32:38;;;;;;;;;;;;;;;23.94;39.65;101612.87;5391566;32;44487;-77
2022/10/06 12:35:39;;;;;;;;;;;;;;;24.00;39.29;101612.41;5421609;32;44709;-70
2022/10/06 12:38:42;;;;;;;;;;;;;;;24.20;38.98;101614.41;5404818;32;35105;-71
2022/10/06 12:41:58;;;;;;;;;;;;;;;23.75;39.78;101605.34;5406463;32;34428;-68
2022/10/06 12:45:00;;;;;;;;;;;;;;;23.71;39.78;101607.44;5381753;32;35383;-68
2022/10/06 12:48:02;;;;;;;;;;;;;;;22.61;42.46;101611.84;5416097;32;34200;-70
2022/10/06 12:51:04;;;;;;;;;;;;;;;23.77;39.94;101603.44;5415085;32;34621;-68
2022/10/06 12:54:18;;;;;;;;;;;;;;;23.67;39.98;101594.34;5410531;32;35876;-77
2022/10/06 12:57:22;;;;;;;;;;;;;;;24.16;39.16;101596.00;5400666;32;34329;-81
2022/10/06 13:00:24;;;;;;;;;;;;;;;24.94;37.51;101590.69;5407534;32;34241;-67
2022/10/06 13:03:28;;;;;;;;;;;;;;;23.62;40.04;101591.16;5422035;32;35521;-83
2022/10/06 13:06:30;;;;;;;;;;;;;;;23.30;41.14;101591.69;5386785;32;36886;-67
2022/10/06 13:09:33;;;;;;;;;;;;;;;24.57;38.36;101590.09;5418914;32;35846;-69
2022/10/06 13:12:38;;;;;;;;;;;;;;;25.18;37.18;101589.69;5405439;32;36343;-68
2022/10/06 13:15:41;;;;;;;;;;;;;;;25.13;37.64;101584.72;5407439;32;43809;-71
2022/10/06 13:18:43;;;;;;;;;;;;;;;26.00;35.64;101576.59;5410099;32;34344;-70
2022/10/06 13:21:45;;;;;;;;;;;;;;;26.76;34.49;101578.03;5393053;32;35429;-70
2022/10/06 13:24:46;;;;;;;;;;;;;;;28.93;30.87;101565.03;5414268;32;35348;-70
2022/10/06 13:27:49;;;;;;;;;;;;;;;31.71;26.00;101555.81;5400496;32;35717;-76
2022/10/06 13:30:52;;;;;;;;;;;;;;;31.98;25.98;101556.50;5412160;32;35655;-71
2022/10/06 13:34:10;;;;;;;;;;;;;;;32.74;24.70;101550.53;5417832;32;34367;-71
2022/10/06 13:37:13;;;;;;;;;;;;;;;30.86;27.00;101552.41;5391289;32;45161;-73
2022/10/06 13:40:15;;;;;;;;;;;;;;;28.52;30.52;101559.91;5411383;32;33950;-77
2022/10/06 13:43:28;;;;;;;;;;;;;;;25.56;35.68;101563.16;5400021;32;34335;-78
2022/10/06 13:46:31;;;;;;;;;;;;;;;26.11;34.78;101553.13;5396356;32;35417;-76
2022/10/06 13:49:35;;;;;;;;;;;;;;;25.97;35.39;101556.16;5410104;32;34325;-85
2022/10/06 13:52:37;;;;;;;;;;;;;;;24.85;37.89;101562.69;5397568;32;33978;-84
2022/10/06 13:55:39;;;;;;;;;;;;;;;25.64;36.64;101557.16;5407196;32;34215;-84
2022/10/06 13:58:42;;;;;;;;;;;;;;;25.18;37.16;101563.66;5405557;32;43614;-74
2022/10/06 14:01:46;;;;;;;;;;;;;;;24.26;39.17;101570.09;5415642;32;35222;-76
2022/10/06 14:05:07;;;;;;;;;;;;;;;24.60;38.46;101557.59;5392451;32;35900;-81
2022/10/06 14:08:09;;;;;;;;;;;;;;;24.50;38.88;101562.00;5404980;32;34338;-75
2022/10/06 14:11:11;;;;;;;;;;;;;;;;;;5416512;32;44569;-75
2022/10/06 14:14:13;;;;;;;;;;;;;;;24.52;39.01;101573.47;5405495;32;34902;-76
2022/10/06 14:17:22;;;;;;;;;;;;;;;24.69;38.50;101567.62;5400234;32;34268;-77
2022/10/06 14:20:40;;;;;;;;;;;;;;;23.66;40.79;101572.03;5402270;32;36198;-71
2022/10/06 14:23:43;;;;;;;;;;;;;;;23.27;42.33;101580.34;5405439;32;44706;-72
2022/10/06 14:26:45;;;;;;;;;;;;;;;23.57;41.54;101580.75;5398575;32;35395;-73
2022/10/06 14:29:47;;;;;;;;;;;;;;;24.28;40.01;101579.78;5397769;32;35449;-71
2022/10/06 14:32:49;;;;;;;;;;;;;;;23.38;41.88;101578.59;5421354;32;34343;-74
2022/10/06 14:35:51;;;;;;;;;;;;;;;23.37;42.09;101578.66;5399275;32;35572;-72
2022/10/06 14:38:54;;;;;;;;;;;;;;;23.40;42.07;101579.31;5418512;32;34283;-71
2022/10/06 14:41:56;;;;;;;;;;;;;;;23.24;42.42;101584.06;5409217;32;34503;-72
2022/10/06 14:44:58;;;;;;;;;;;;;;;23.15;42.58;101582.94;5398474;32;34769;-72
2022/10/06 14:48:03;;;;;;;;;;;;;;;23.21;42.79;101592.38;5417633;32;35976;-74
2022/10/06 14:51:05;;;;;;;;;;;;;;;23.62;41.63;101581.25;5404600;32;33958;-75
2022/10/06 14:54:09;;;;;;;;;;;;;;;23.02;42.93;101590.16;5412733;32;34266;-74
2022/10/06 14:57:12;;;;;;;;;;;;;;;22.81;44.01;101595.22;5410599;32;44681;-75
2022/10/06 15:00:14;;;;;;;;;;;;;;;22.59;44.38;101600.38;5423780;32;34252;-75
2022/10/06 15:03:16;;;;;;;;;;;;;;;22.87;43.39;101604.69;5408433;32;35134;-74
2022/10/06 15:09:38;;;;;;;;;;;;;;;23.62;41.62;101594.69;5426693;32;35600;-73
2022/10/06 15:12:40;;;;;;;;;;;;;;;23.85;41.07;101603.69;5410032;32;45681;-74
2022/10/06 15:15:42;;;;;;;;;;;;;;;23.97;41.03;101601.91;5411021;32;35440;-78
2022/10/06 15:18:44;;;;;;;;;;;;;;;23.55;41.92;101598.78;5412446;32;34905;-78
2022/10/06 15:21:46;;;;;;;;;;;;;;;23.05;43.71;101608.69;5408950;32;34923;-74
2022/10/06 15:24:50;;;;;;;;;;;;;;;23.27;43.33;101613.37;5413756;32;35646;-76
2022/10/06 15:31:19;;;;;;;;;;;;;;;23.14;44.24;101621.47;5424133;32;44783;-77
2022/10/06 15:34:23;;;;;;;;;;;;;;;22.33;46.20;101615.59;5398025;32;35089;-74
2022/10/06 15:37:25;;;;;;;;;;;;;;;23.19;44.16;101619.31;5412420;32;34812;-80
2022/10/06 15:40:27;;;;;;;;;;;;;;;22.81;45.22;101623.84;5411444;32;33851;-77
2022/10/06 15:43:53;;;;;;;;;;;;;;;23.21;44.09;101628.09;5405710;32;36605;-74
2022/10/06 15:46:53;;;;;;;;;;;;;;;22.62;45.56;101630.50;5391671;32;35434;-77
2022/10/06 15:49:55;;;;;;;;;;;;;;;22.64;45.66;101625.88;5406059;32;35222;-76
2022/10/06 15:52:57;;;;;;;;;;;;;;;21.25;48.82;101639.66;5423409;32;35047;-77
2022/10/06 15:55:58;;;;;;;;;;;;;;;22.36;46.38;101636.81;5411964;32;35433;-74
2022/10/06 15:59:01;;;;;;;;;;;;;;;22.13;46.66;101641.91;5417966;32;34972;-75
2022/10/06 16:02:06;;;;;;;;;;;;;;;22.47;46.44;101639.59;5417823;32;35329;-74
2022/10/06 16:08:10;;;;;;;;;;;;;;;22.21;46.96;101635.16;5429289;32;44150;-74
2022/10/06 16:11:12;;;;;;;;;;;;;;;22.18;46.96;101649.63;5407126;32;35062;-73
2022/10/06 16:14:14;;;;;;;;;;;;;;;20.56;51.16;101654.69;5396874;32;34455;-74